Time;durP1;ratioP1;P1;durP2;ratioP2;P2;SDS_P1;SDS_P2;PMS_P1;PMS_P2;Temp;Humidity;BMP_temperature;BMP_pressure;BME280_temperature;BME280_humidity;BME280_pressure;Samples;Min_cycle;Max_cycle;Signal;HPM_P1;HPM_P2
2022/10/23 00:00:37;;;;;;;11.40;4.65;;;10.60;99.90;;;;;;5101012;28;20031;-73
2022/10/23 00:03:03;;;;;;;19.85;5.25;;;10.70;99.90;;;;;;5106249;28;20469;-77
2022/10/23 00:05:29;;;;;;;9.20;5.22;;;10.60;99.90;;;;;;5083751;28;20046;-76
2022/10/23 00:07:57;;;;;;;10.23;4.60;;;10.90;99.90;;;;;;5089571;28;20061;-78
2022/10/23 00:10:25;;;;;;;13.85;5.20;;;10.60;99.90;;;;;;5085702;28;20081;-74
2022/10/23 00:12:52;;;;;;;18.95;5.25;;;10.60;99.90;;;;;;5088901;28;20044;-77
2022/10/23 00:15:21;;;;;;;13.43;5.32;;;10.60;99.90;;;;;;5104626;28;20050;-75
2022/10/23 00:17:47;;;;;;;13.20;5.60;;;10.60;99.90;;;;;;5084955;28;20039;-75
2022/10/23 00:20:14;;;;;;;15.73;6.20;;;10.60;99.90;;;;;;5106746;28;20444;-76
2022/10/23 00:22:40;;;;;;;20.17;7.90;;;10.70;99.90;;;;;;5094995;28;20051;-78
2022/10/23 00:25:07;;;;;;;13.70;7.45;;;10.60;99.90;;;;;;5098907;28;20064;-75
2022/10/23 00:27:33;;;;;;;15.90;7.88;;;10.60;99.90;;;;;;5095990;28;20042;-74
2022/10/23 00:29:59;;;;;;;12.00;6.47;;;11.30;99.90;;;;;;5097953;28;20043;-76
2022/10/23 00:32:25;;;;;;;14.13;6.60;;;10.70;99.90;;;;;;5102106;28;20040;-75
2022/10/23 00:34:51;;;;;;;11.68;6.10;;;10.60;99.90;;;;;;5093656;28;20162;-80
2022/10/23 00:37:17;;;;;;;13.38;6.07;;;10.60;99.90;;;;;;5085893;28;20130;-75
2022/10/23 00:39:42;;;;;;;14.07;6.38;;;10.60;99.90;;;;;;5110958;27;20052;-78
2022/10/23 00:42:16;;;;;;;11.98;5.65;;;10.60;99.90;;;;;;5095890;28;20054;-78
2022/10/23 00:44:42;;;;;;;9.82;5.57;;;10.70;99.90;;;;;;5092925;28;20047;-78
2022/10/23 00:47:08;;;;;;;11.38;5.70;;;10.60;99.90;;;;;;5101602;28;20048;-74
2022/10/23 00:49:34;;;;;;;14.60;7.68;;;10.60;99.90;;;;;;5101624;28;20040;-77
2022/10/23 00:52:03;;;;;;;27.08;10.52;;;10.60;99.90;;;;;;5093235;28;20052;-76
2022/10/23 00:54:35;;;;;;;23.25;9.25;;;10.60;99.90;;;;;;5100825;28;20151;-78
2022/10/23 00:57:04;;;;;;;15.30;7.93;;;10.60;99.90;;;;;;5112615;27;20088;-75
2022/10/23 00:59:30;;;;;;;20.42;8.07;;;10.60;99.90;;;;;;5080223;28;20047;-80
2022/10/23 01:01:57;;;;;;;15.93;7.88;;;10.60;99.90;;;;;;5082668;28;20072;-81
2022/10/23 01:04:23;;;;;;;15.00;7.30;;;11.10;99.90;;;;;;5081601;28;20040;-81
2022/10/23 01:07:13;;;;;;;18.17;8.05;;;10.50;99.90;;;;;;5096531;28;20714;-79
2022/10/23 01:09:45;;;;;;;18.00;7.75;;;10.60;99.90;;;;;;5126540;27;20520;-80
2022/10/23 01:12:33;;;;;;;16.70;9.32;;;10.60;99.90;;;;;;5079255;28;20051;-75
2022/10/23 01:14:59;;;;;;;13.43;7.13;;;10.50;99.90;;;;;;5095124;28;20043;-82
2022/10/23 01:17:41;;;;;;;22.98;8.95;;;10.50;99.90;;;;;;5096558;28;20059;-77
2022/10/23 01:20:21;;;;;;;17.13;7.78;;;10.50;99.90;;;;;;5083831;28;20071;-80
2022/10/23 01:23:21;;;;;;;14.85;7.65;;;10.50;99.90;;;;;;5067784;28;20054;-75
2022/10/23 01:26:09;;;;;;;19.67;7.40;;;11.30;99.90;;;;;;5085864;27;20043;-77
2022/10/23 01:28:57;;;;;;;10.30;7.38;;;10.50;99.90;;;;;;5083813;28;20543;-79
2022/10/23 01:31:34;;;;;;;15.07;8.20;;;10.50;99.90;;;;;;5087099;28;20051;-77
2022/10/23 01:34:08;;;;;;;19.35;7.63;;;10.50;99.90;;;;;;5126960;27;20130;-78
2022/10/23 01:36:38;;;;;;;15.25;8.48;;;10.50;99.90;;;;;;5105095;28;20078;-76
2022/10/23 01:39:10;;;;;;;18.15;8.40;;;11.30;99.90;;;;;;5101667;28;20047;-76
2022/10/23 01:41:45;;;;;;;11.60;8.13;;;10.50;99.90;;;;;;5099737;28;20046;-73
2022/10/23 01:44:31;;;;;;;13.43;8.02;;;10.50;99.90;;;;;;5100925;28;20056;-78
2022/10/23 01:46:57;;;;;;;11.15;7.15;;;10.50;99.90;;;;;;5104617;28;20095;-75
2022/10/23 01:49:23;;;;;;;13.50;8.57;;;10.50;99.90;;;;;;5088083;28;20043;-77
2022/10/23 01:51:53;;;;;;;16.65;8.35;;;10.50;99.90;;;;;;5102037;28;20064;-77
2022/10/23 01:54:25;;;;;;;21.13;8.52;;;10.50;99.90;;;;;;5106740;28;20104;-79
2022/10/23 01:56:52;;;;;;;12.73;7.93;;;10.50;99.90;;;;;;5083785;28;20047;-75
2022/10/23 01:59:24;;;;;;;16.38;8.63;;;10.70;99.90;;;;;;5086768;28;20040;-77
2022/10/23 02:01:53;;;;;;;13.18;8.02;;;10.50;99.90;;;;;;5109273;28;20091;-79
2022/10/23 02:04:24;;;;;;;10.85;8.10;;;11.50;99.90;;;;;;5089340;28;20446;-75
2022/10/23 02:06:50;;;;;;;12.20;8.02;;;11.50;99.90;;;;;;5110710;28;20103;-78
2022/10/23 02:09:16;;;;;;;13.30;7.65;;;10.50;99.90;;;;;;5113079;28;20498;-76
2022/10/23 02:11:51;;;;;;;13.20;7.95;;;12.10;99.90;;;;;;5106375;28;20093;-77
2022/10/23 02:14:48;;;;;;;13.95;8.52;;;10.50;99.90;;;;;;5108092;28;20032;-74
2022/10/23 02:17:23;;;;;;;12.98;7.93;;;10.40;99.90;;;;;;5090574;28;20134;-77
2022/10/23 02:20:09;;;;;;;15.98;9.57;;;10.40;99.90;;;;;;5108862;28;20097;-74
2022/10/23 02:22:41;;;;;;;13.60;8.68;;;10.40;99.90;;;;;;5088680;28;20075;-75
2022/10/23 02:25:13;;;;;;;18.88;9.25;;;10.40;99.90;;;;;;5105159;28;20051;-76
2022/10/23 02:27:46;;;;;;;17.77;8.02;;;10.40;99.90;;;;;;5106417;28;20091;-78
2022/10/23 02:30:15;;;;;;;12.60;8.30;;;10.40;99.90;;;;;;5092657;28;20065;-76
2022/10/23 02:32:49;;;;;;;11.70;8.18;;;11.50;99.90;;;;;;5104521;28;20044;-80
2022/10/23 02:35:17;;;;;;;11.32;8.73;;;9.60;99.90;;;;;;5110935;28;20043;-76
2022/10/23 02:37:51;;;;;;;11.57;8.23;;;10.40;99.90;;;;;;5107530;28;20083;-74
2022/10/23 02:40:17;;;;;;;16.65;8.73;;;10.40;99.90;;;;;;5107169;28;20491;-75
2022/10/23 02:43:19;;;;;;;10.32;9.15;;;10.40;99.90;;;;;;5104308;28;20040;-79
2022/10/23 02:45:59;;;;;;;13.40;9.02;;;10.30;99.90;;;;;;5085435;28;20043;-82
2022/10/23 02:48:35;;;;;;;14.18;9.57;;;10.50;99.90;;;;;;5120623;27;20110;-77
2022/10/23 02:51:09;;;;;;;16.55;8.98;;;10.30;99.90;;;;;;5104084;28;20043;-80
2022/10/23 02:53:59;;;;;;;12.52;8.70;;;10.30;99.90;;;;;;5125522;27;20089;-80
2022/10/23 02:56:48;;;;;;;14.02;8.98;;;10.30;99.90;;;;;;5109758;28;20040;-82
2022/10/23 02:59:36;;;;;;;11.45;8.65;;;10.30;99.90;;;;;;5086726;28;20055;-74
2022/10/23 03:02:24;;;;;;;11.30;8.23;;;10.30;99.90;;;;;;5100541;28;20079;-79
2022/10/23 03:04:53;;;;;;;12.57;9.10;;;10.30;99.90;;;;;;5123664;27;20040;-75
2022/10/23 03:07:19;;;;;;;12.23;7.95;;;10.50;99.90;;;;;;5112526;28;20577;-78
2022/10/23 03:09:45;;;;;;;11.02;8.45;;;10.20;99.90;;;;;;5094505;28;20615;-76
2022/10/23 03:12:10;;;;;;;12.15;9.55;;;10.30;99.90;;;;;;5099267;28;20346;-80
2022/10/23 03:14:36;;;;;;;10.73;8.02;;;10.30;99.90;;;;;;5105327;28;20578;-79
2022/10/23 03:17:03;;;;;;;13.00;8.50;;;10.30;99.90;;;;;;5086637;28;20035;-79
2022/10/23 03:19:28;;;;;;;15.10;8.40;;;10.20;99.90;;;;;;5106807;28;20046;-78
2022/10/23 03:21:54;;;;;;;13.13;7.88;;;10.30;99.90;;;;;;5102385;28;20043;-76
2022/10/23 03:24:19;;;;;;;10.93;8.27;;;10.10;99.90;;;;;;5107724;28;20127;-78
2022/10/23 03:26:45;;;;;;;11.45;8.35;;;10.20;99.90;;;;;;5104415;28;20374;-81
2022/10/23 03:29:11;;;;;;;17.50;9.13;;;11.50;99.90;;;;;;5109887;28;20056;-75
2022/10/23 03:31:36;;;;;;;12.65;8.20;;;10.30;99.90;;;;;;5096489;28;20108;-74
2022/10/23 03:34:02;;;;;;;12.82;9.57;;;11.40;99.90;;;;;;5107186;28;20498;-75
2022/10/23 03:36:28;;;;;;;12.48;9.07;;;10.20;99.90;;;;;;5099551;28;20044;-77
2022/10/23 03:38:53;;;;;;;16.75;10.10;;;10.20;99.90;;;;;;5103141;28;20432;-76
2022/10/23 03:41:19;;;;;;;13.57;8.75;;;10.20;99.90;;;;;;5097694;28;20084;-80
2022/10/23 03:43:44;;;;;;;13.98;9.00;;;10.20;99.90;;;;;;5097624;28;20112;-82
2022/10/23 03:46:11;;;;;;;12.70;8.80;;;10.20;99.90;;;;;;5100829;28;20035;-80
2022/10/23 03:48:38;;;;;;;12.88;9.52;;;10.70;99.90;;;;;;5130340;27;20092;-81
2022/10/23 03:51:06;;;;;;;11.80;8.32;;;11.80;99.90;;;;;;5096672;28;20080;-76
2022/10/23 03:53:32;;;;;;;13.00;9.23;;;10.20;99.90;;;;;;5084626;28;20040;-79
2022/10/23 03:55:58;;;;;;;12.00;8.88;;;10.20;99.90;;;;;;5101375;27;20498;-74
2022/10/23 03:58:24;;;;;;;13.80;10.02;;;10.20;99.90;;;;;;5083110;28;20173;-77
2022/10/23 04:00:50;;;;;;;14.93;10.75;;;10.20;99.90;;;;;;5080281;28;20036;-75
2022/10/23 04:03:15;;;;;;;16.17;9.50;;;10.10;99.90;;;;;;5098456;28;20036;-75
2022/10/23 04:05:41;;;;;;;12.98;10.13;;;10.20;99.90;;;;;;5095803;28;20092;-76
2022/10/23 04:08:08;;;;;;;16.67;10.70;;;10.30;99.90;;;;;;5099725;28;20051;-78
2022/10/23 04:10:34;;;;;;;15.27;10.20;;;10.90;99.90;;;;;;5113867;27;20431;-78
2022/10/23 04:12:59;;;;;;;15.25;9.07;;;10.60;99.90;;;;;;5102471;28;20047;-76
2022/10/23 04:15:25;;;;;;;18.65;11.00;;;10.20;99.90;;;;;;5084615;28;20085;-78
2022/10/23 04:17:51;;;;;;;13.90;10.02;;;10.00;99.90;;;;;;5088851;28;20093;-77
2022/10/23 04:20:16;;;;;;;18.55;12.63;;;10.20;99.90;;;;;;5091038;28;20040;-74
2022/10/23 04:22:42;;;;;;;15.45;11.25;;;11.20;99.90;;;;;;5104021;28;20047;-77
2022/10/23 04:25:08;;;;;;;19.38;12.77;;;10.20;99.90;;;;;;5135598;27;20080;-74
2022/10/23 04:27:34;;;;;;;16.17;11.88;;;10.20;99.90;;;;;;5102857;28;20063;-77
2022/10/23 04:29:59;;;;;;;22.80;11.07;;;10.20;99.90;;;;;;5092138;28;20126;-75
2022/10/23 04:32:25;;;;;;;18.95;12.07;;;11.40;99.90;;;;;;5102647;28;20055;-76
2022/10/23 04:34:51;;;;;;;17.45;11.77;;;10.20;99.90;;;;;;5109947;28;20040;-77
2022/10/23 04:37:17;;;;;;;18.02;12.70;;;10.20;99.90;;;;;;5091737;28;20051;-80
2022/10/23 04:39:42;;;;;;;15.90;11.48;;;10.20;99.90;;;;;;5076805;28;20043;-75
2022/10/23 04:42:08;;;;;;;15.45;10.40;;;10.10;99.90;;;;;;5105255;28;20048;-79
2022/10/23 04:44:34;;;;;;;11.38;10.07;;;10.20;99.90;;;;;;5103458;28;20517;-75
2022/10/23 04:46:59;;;;;;;15.95;10.52;;;10.20;99.90;;;;;;5089949;28;20063;-80
2022/10/23 04:49:25;;;;;;;19.38;11.05;;;10.20;99.90;;;;;;5106197;28;20047;-80
2022/10/23 04:51:51;;;;;;;16.42;10.18;;;10.20;99.90;;;;;;5104216;28;20052;-79
2022/10/23 04:54:16;;;;;;;16.58;10.15;;;10.20;99.90;;;;;;5115556;27;20044;-76
2022/10/23 04:56:42;;;;;;;15.50;9.85;;;10.30;99.90;;;;;;5105836;28;20474;-74
2022/10/23 04:59:08;;;;;;;22.65;10.70;;;10.20;99.90;;;;;;5138728;27;20134;-76
2022/10/23 05:01:34;;;;;;;14.88;11.30;;;10.20;99.90;;;;;;5087638;28;20040;-75
2022/10/23 05:04:03;;;;;;;19.92;11.02;;;10.20;99.90;;;;;;5104420;28;20437;-77
2022/10/23 05:06:29;;;;;;;12.55;10.32;;;10.80;99.90;;;;;;5102094;28;20063;-80
2022/10/23 05:08:55;;;;;;;14.20;10.43;;;10.20;99.90;;;;;;5108573;28;20454;-76
2022/10/23 05:11:21;;;;;;;15.07;11.27;;;10.20;99.90;;;;;;5105580;28;20479;-81
2022/10/23 05:13:46;;;;;;;19.17;12.07;;;10.20;99.90;;;;;;5099394;28;20044;-77
2022/10/23 05:16:28;;;;;;;12.70;10.75;;;10.20;99.90;;;;;;5108697;28;20047;-75
2022/10/23 05:18:53;;;;;;;14.60;11.07;;;10.20;99.90;;;;;;5097007;28;20055;-80
2022/10/23 05:21:25;;;;;;;20.52;12.57;;;10.30;99.90;;;;;;5093980;28;20027;-74
2022/10/23 05:23:51;;;;;;;21.15;11.07;;;10.20;99.90;;;;;;5104782;28;20071;-80
2022/10/23 05:26:17;;;;;;;17.90;12.40;;;10.20;99.90;;;;;;5106102;28;20039;-76
2022/10/23 05:28:42;;;;;;;28.98;13.55;;;10.20;99.90;;;;;;5104939;28;20501;-75
2022/10/23 05:31:08;;;;;;;13.80;11.55;;;10.20;99.90;;;;;;5104093;28;20051;-75
2022/10/23 05:33:35;;;;;;;19.77;12.10;;;10.20;99.90;;;;;;5103364;28;20035;-77
2022/10/23 05:36:01;;;;;;;18.67;12.40;;;10.20;99.90;;;;;;5109148;27;20036;-75
2022/10/23 05:38:29;;;;;;;26.55;13.93;;;10.30;99.90;;;;;;5105989;28;20050;-81
2022/10/23 05:40:55;;;;;;;19.33;13.98;;;10.20;99.90;;;;;;5088410;28;20043;-76
2022/10/23 05:43:20;;;;;;;18.10;12.98;;;10.20;99.90;;;;;;5099870;28;21934;-75
2022/10/23 05:45:46;;;;;;;30.92;25.77;;;10.20;99.90;;;;;;5088191;28;20513;-75
2022/10/23 05:48:15;;;;;;;19.95;14.52;;;10.20;99.90;;;;;;5103697;28;20430;-81
2022/10/23 05:50:41;;;;;;;15.65;11.95;;;10.20;99.90;;;;;;5105305;28;20584;-79
2022/10/23 05:53:08;;;;;;;17.35;12.30;;;10.20;99.90;;;;;;5107667;28;20051;-77
2022/10/23 05:55:34;;;;;;;15.88;11.50;;;10.20;99.90;;;;;;5105409;28;20043;-75
2022/10/23 05:58:02;;;;;;;16.92;12.40;;;10.20;99.90;;;;;;5100775;28;20419;-75
2022/10/23 06:00:27;;;;;;;15.48;11.98;;;10.20;99.90;;;;;;5103234;28;20048;-75
2022/10/23 06:02:53;;;;;;;18.80;12.63;;;11.10;99.90;;;;;;5107908;28;20035;-74
2022/10/23 06:05:20;;;;;;;20.05;13.30;;;10.20;99.90;;;;;;5105915;28;20492;-74
2022/10/23 06:07:46;;;;;;;21.92;13.82;;;10.20;99.90;;;;;;5082754;28;20059;-74
2022/10/23 06:10:11;;;;;;;21.02;12.65;;;10.30;99.90;;;;;;5101170;28;20383;-77
2022/10/23 06:12:37;;;;;;;18.35;12.52;;;11.60;99.90;;;;;;5086253;28;20051;-76
2022/10/23 06:15:04;;;;;;;17.80;11.85;;;10.10;99.90;;;;;;5103906;28;20079;-75
2022/10/23 06:17:29;;;;;;;21.02;13.30;;;10.30;99.90;;;;;;5088363;28;20100;-76
2022/10/23 06:20:01;;;;;;;38.30;26.10;;;10.20;99.90;;;;;;5101909;28;20039;-74
2022/10/23 06:22:28;;;;;;;20.75;14.05;;;10.20;99.90;;;;;;5103616;28;20032;-75
2022/10/23 06:24:54;;;;;;;22.10;15.30;;;10.30;99.90;;;;;;5086356;28;20169;-74
2022/10/23 06:27:20;;;;;;;17.40;13.48;;;11.50;99.90;;;;;;5104656;28;20434;-75
2022/10/23 06:29:46;;;;;;;24.25;12.60;;;10.30;99.90;;;;;;5101213;28;20104;-76
2022/10/23 06:32:11;;;;;;;19.38;12.68;;;10.30;99.90;;;;;;5093055;28;20062;-75
2022/10/23 06:34:37;;;;;;;24.88;12.63;;;11.50;99.90;;;;;;5093047;28;20035;-74
2022/10/23 06:37:02;;;;;;;19.13;13.43;;;10.20;99.90;;;;;;5094530;28;20518;-74
2022/10/23 06:39:28;;;;;;;22.48;13.07;;;10.30;99.90;;;;;;5081080;28;20040;-76
2022/10/23 06:41:54;;;;;;;24.02;13.57;;;10.30;99.90;;;;;;5095677;28;20051;-76
2022/10/23 06:44:19;;;;;;;20.45;13.63;;;10.60;99.90;;;;;;5096049;28;20616;-77
2022/10/23 06:46:46;;;;;;;14.95;12.75;;;10.30;99.90;;;;;;5100414;28;20035;-76
2022/10/23 06:49:15;;;;;;;15.77;12.18;;;10.30;99.90;;;;;;5083086;28;20043;-75
2022/10/23 06:51:42;;;;;;;19.13;12.70;;;11.20;99.90;;;;;;5100777;28;20043;-78
2022/10/23 06:54:10;;;;;;;32.55;21.95;;;10.30;99.90;;;;;;5085681;28;20494;-77
2022/10/23 06:56:36;;;;;;;24.27;17.33;;;11.70;99.90;;;;;;5110395;27;20042;-77
2022/10/23 06:59:02;;;;;;;22.65;18.30;;;11.90;99.90;;;;;;5098715;28;20083;-77
2022/10/23 07:01:28;;;;;;;18.92;13.70;;;11.20;99.90;;;;;;5100105;27;20075;-75
2022/10/23 07:03:53;;;;;;;24.33;11.48;;;10.30;99.90;;;;;;5099417;28;20039;-79
2022/10/23 07:06:19;;;;;;;19.35;13.02;;;10.40;99.90;;;;;;5099497;28;20051;-75
2022/10/23 07:08:45;;;;;;;20.55;12.90;;;10.40;99.90;;;;;;5079411;28;21907;-76
2022/10/23 07:11:11;;;;;;;15.43;11.02;;;10.60;99.90;;;;;;5099917;27;20096;-75
2022/10/23 07:13:38;;;;;;;17.13;12.68;;;10.40;99.90;;;;;;5082069;28;20092;-78
2022/10/23 07:16:15;;;;;;;15.05;11.07;;;10.50;99.90;;;;;;5103428;27;20115;-75
2022/10/23 07:18:41;;;;;;;21.98;13.38;;;10.40;99.90;;;;;;5099450;28;20052;-75
2022/10/23 07:21:06;;;;;;;21.33;13.80;;;10.40;99.90;;;;;;5102023;28;20038;-78
2022/10/23 07:23:32;;;;;;;19.17;12.40;;;10.40;99.90;;;;;;5104277;28;20040;-75
2022/10/23 07:26:15;;;;;;;23.63;12.65;;;10.50;99.90;;;;;;5084234;28;20055;-75
2022/10/23 07:28:43;;;;;;;16.60;13.43;;;10.50;99.90;;;;;;5107207;28;20039;-78
2022/10/23 07:31:09;;;;;;;21.48;13.40;;;10.50;99.90;;;;;;5108284;27;20051;-74
2022/10/23 07:33:36;;;;;;;28.30;14.35;;;10.50;99.90;;;;;;5105256;28;20031;-74
2022/10/23 07:36:07;;;;;;;19.65;13.63;;;10.60;99.90;;;;;;5085508;28;20540;-78
2022/10/23 07:38:34;;;;;;;19.83;13.77;;;10.60;99.90;;;;;;5104682;28;20752;-75
2022/10/23 07:41:00;;;;;;;28.38;15.25;;;10.60;99.90;;;;;;5089803;28;20035;-77
2022/10/23 07:43:27;;;;;;;21.90;14.30;;;10.60;99.90;;;;;;5105413;28;20118;-77
2022/10/23 07:45:53;;;;;;;19.55;13.52;;;10.70;99.90;;;;;;5108110;28;20067;-75
2022/10/23 07:48:19;;;;;;;25.70;13.38;;;10.60;99.90;;;;;;5105115;27;20043;-77
2022/10/23 07:50:45;;;;;;;20.27;13.85;;;11.10;99.90;;;;;;5104572;28;20039;-75
2022/10/23 07:53:23;;;;;;;21.42;13.95;;;10.70;99.90;;;;;;5109453;28;20055;-76
2022/10/23 07:55:53;;;;;;;24.15;14.05;;;10.70;99.90;;;;;;5086125;28;20035;-75
2022/10/23 07:58:19;;;;;;;25.58;14.02;;;10.70;99.90;;;;;;5105385;28;20054;-80
2022/10/23 08:00:50;;;;;;;23.15;13.93;;;10.70;99.90;;;;;;5092773;28;20048;-81
2022/10/23 08:03:16;;;;;;;20.13;13.98;;;10.80;99.90;;;;;;5110873;27;20123;-75
2022/10/23 08:05:42;;;;;;;23.70;14.48;;;11.70;99.90;;;;;;5096039;28;20115;-76
2022/10/23 08:08:08;;;;;;;22.67;13.82;;;10.80;99.90;;;;;;5102074;28;20067;-77
2022/10/23 08:10:34;;;;;;;22.33;14.38;;;11.30;99.90;;;;;;4383080;28;10000665;-79
2022/10/23 08:13:00;;;;;;;22.48;15.10;;;10.90;99.90;;;;;;5097260;28;20039;-75
2022/10/23 08:15:26;;;;;;;20.67;13.85;;;10.90;99.90;;;;;;5107129;28;20115;-80
2022/10/23 08:17:51;;;;;;;27.27;15.55;;;10.90;99.90;;;;;;5107784;28;20044;-75
2022/10/23 08:20:17;;;;;;;22.02;14.75;;;11.40;99.90;;;;;;5104361;28;20032;-78
2022/10/23 08:22:43;;;;;;;18.73;13.30;;;11.00;99.90;;;;;;5103487;28;20055;-75
2022/10/23 08:25:09;;;;;;;28.42;14.77;;;11.00;99.90;;;;;;5103305;28;20047;-78
2022/10/23 08:27:35;;;;;;;23.25;13.60;;;11.10;99.90;;;;;;5103666;28;20114;-79
2022/10/23 08:30:01;;;;;;;25.70;14.68;;;11.10;99.90;;;;;;5085119;28;20172;-76
2022/10/23 08:32:30;;;;;;;28.25;15.10;;;11.20;99.90;;;;;;5105466;28;20460;-74
2022/10/23 08:34:55;;;;;;;24.42;14.30;;;11.20;99.90;;;;;;5106055;28;20036;-74
2022/10/23 08:37:22;;;;;;;24.27;15.95;;;11.30;99.90;;;;;;5101088;28;20063;-80
2022/10/23 08:39:47;;;;;;;17.55;13.93;;;11.30;99.90;;;;;;5118129;27;20085;-83
2022/10/23 08:42:20;;;;;;;19.77;13.35;;;12.20;99.90;;;;;;5087281;27;20571;-80
2022/10/23 08:45:05;;;;;;;25.27;14.77;;;11.50;99.90;;;;;;5099655;27;20043;-78
2022/10/23 08:47:41;;;;;;;24.73;14.00;;;11.40;99.90;;;;;;5105014;28;20089;-75
2022/10/23 08:50:28;;;;;;;25.10;14.75;;;11.50;99.90;;;;;;5102242;27;20062;-76
2022/10/23 08:53:03;;;;;;;24.58;13.00;;;11.60;99.90;;;;;;5098686;28;20036;-76
2022/10/23 08:55:57;;;;;;;20.77;13.32;;;11.60;99.90;;;;;;5098726;28;20099;-76
2022/10/23 08:58:28;;;;;;;26.42;14.88;;;11.70;99.90;;;;;;5102461;28;20051;-75
2022/10/23 09:00:53;;;;;;;23.77;13.88;;;11.70;99.90;;;;;;5096235;28;20316;-75
2022/10/23 09:03:20;;;;;;;22.83;12.90;;;11.80;99.90;;;;;;5098975;28;20051;-75
2022/10/23 09:06:06;;;;;;;22.83;12.93;;;11.80;99.90;;;;;;5085377;28;20382;-78
2022/10/23 09:09:03;;;;;;;17.17;12.13;;;11.80;99.90;;;;;;5102154;28;20055;-76
2022/10/23 09:11:46;;;;;;;23.27;14.15;;;12.70;99.90;;;;;;5098606;28;20047;-75
2022/10/23 09:14:36;;;;;;;21.10;12.68;;;11.90;99.90;;;;;;5101382;28;20040;-75
2022/10/23 09:17:26;;;;;;;23.00;13.50;;;12.00;99.90;;;;;;5086728;28;20558;-79
2022/10/23 09:20:11;;;;;;;17.55;11.88;;;12.10;99.90;;;;;;5093674;28;20044;-74
2022/10/23 09:22:37;;;;;;;24.08;13.15;;;12.10;99.90;;;;;;5099604;28;20032;-87
2022/10/23 09:25:09;;;;;;;19.38;11.32;;;12.20;99.90;;;;;;5109197;28;20043;-76
2022/10/23 09:27:35;;;;;;;19.15;11.32;;;12.20;99.90;;;;;;5101822;28;20039;-78
2022/10/23 09:30:00;;;;;;;17.05;11.13;;;12.30;99.90;;;;;;5082353;28;20147;-76
2022/10/23 09:32:37;;;;;;;15.73;11.02;;;12.30;99.90;;;;;;5076779;28;20081;-76
2022/10/23 09:35:03;;;;;;;18.60;10.90;;;12.50;99.90;;;;;;5102045;28;20039;-79
2022/10/23 09:37:33;;;;;;;19.08;11.00;;;12.10;99.90;;;;;;5084939;28;20459;-76
2022/10/23 09:40:20;;;;;;;16.48;10.02;;;12.60;99.90;;;;;;5087683;28;20043;-76
2022/10/23 09:42:59;;;;;;;22.25;9.80;;;12.60;99.90;;;;;;5102984;28;20040;-75
2022/10/23 09:45:31;;;;;;;17.05;9.63;;;12.70;99.90;;;;;;5094232;28;20538;-79
2022/10/23 09:48:15;;;;;;;17.25;9.25;;;12.80;99.90;;;;;;5126750;27;20039;-80
2022/10/23 09:50:53;;;;;;;13.88;8.38;;;12.90;99.90;;;;;;5097368;28;20132;-84
2022/10/23 09:53:33;;;;;;;17.48;7.93;;;12.90;99.90;;;;;;5098641;28;20075;-81
2022/10/23 09:56:23;;;;;;;12.73;8.27;;;13.00;99.90;;;;;;5104737;28;20429;-84
2022/10/23 09:59:01;;;;;;;15.27;7.95;;;14.20;99.90;;;;;;5104267;28;20055;-82
2022/10/23 10:01:31;;;;;;;13.05;7.47;;;13.00;99.90;;;;;;5119604;27;20135;-80
2022/10/23 10:03:57;;;;;;;12.02;6.82;;;13.80;99.90;;;;;;5105085;27;20173;-87
2022/10/23 10:06:26;;;;;;;16.25;7.05;;;13.10;99.90;;;;;;5107095;28;20114;-85
2022/10/23 10:08:55;;;;;;;10.70;6.90;;;13.20;99.90;;;;;;5104487;28;20048;-87
2022/10/23 10:11:29;;;;;;;10.43;6.00;;;12.80;99.90;;;;;;5087084;28;20047;-76
2022/10/23 10:14:20;;;;;;;13.27;6.75;;;13.30;99.90;;;;;;5100842;28;20032;-83
2022/10/23 10:16:48;;;;;;;15.32;6.53;;;13.30;99.90;;;;;;5101721;28;20816;-81
2022/10/23 10:19:47;;;;;;;10.20;6.10;;;13.40;99.90;;;;;;5108112;28;20048;-76
2022/10/23 10:22:30;;;;;;;13.55;5.82;;;13.40;99.90;;;;;;5109457;27;20047;-76
2022/10/23 10:25:34;;;;;;;11.32;6.25;;;13.50;99.90;;;;;;5083648;28;20390;-78
2022/10/23 10:28:24;;;;;;;12.20;5.90;;;13.50;99.90;;;;;;5091532;28;20413;-77
2022/10/23 10:31:18;;;;;;;12.52;6.18;;;13.60;99.90;;;;;;5107646;28;20044;-76
2022/10/23 10:34:10;;;;;;;11.50;5.60;;;13.60;99.90;;;;;;5106817;28;20547;-76
2022/10/23 10:36:46;;;;;;;11.23;5.63;;;13.70;99.90;;;;;;5087838;28;20285;-89
2022/10/23 10:39:43;;;;;;;11.60;5.70;;;13.70;99.90;;;;;;5094505;28;20517;-78
2022/10/23 10:42:34;;;;;;;9.23;4.95;;;13.80;99.90;;;;;;5103259;28;20048;-85
2022/10/23 10:45:18;;;;;;;8.88;4.93;;;13.90;99.90;;;;;;5104387;28;20106;-76
2022/10/23 10:48:18;;;;;;;10.38;5.32;;;13.90;99.90;;;;;;5107243;28;20043;-78
2022/10/23 10:51:00;;;;;;;7.10;4.47;;;13.50;99.90;;;;;;5100676;28;20463;-77
2022/10/23 10:53:50;;;;;;;10.25;4.70;;;14.10;99.90;;;;;;5100398;28;20032;-76
2022/10/23 10:56:19;;;;;;;10.93;4.18;;;14.10;99.90;;;;;;5104783;28;20039;-80
2022/10/23 10:58:55;;;;;;;10.60;4.30;;;15.00;99.90;;;;;;5060458;28;20047;-79
2022/10/23 11:01:42;;;;;;;7.60;3.83;;;14.20;99.90;;;;;;5082339;28;20063;-79
2022/10/23 11:04:39;;;;;;;8.25;3.67;;;14.30;99.90;;;;;;5081328;28;20056;-84
2022/10/23 11:07:10;;;;;;;6.13;3.60;;;14.30;99.90;;;;;;5116842;27;20096;-80
2022/10/23 11:09:37;;;;;;;12.60;4.65;;;14.30;99.90;;;;;;5087118;28;20050;-77
2022/10/23 11:12:03;;;;;;;6.95;3.20;;;14.30;99.90;;;;;;5104197;27;20043;-84
2022/10/23 11:14:32;;;;;;;10.40;3.85;;;14.40;99.90;;;;;;5102557;28;20127;-78
2022/10/23 11:17:10;;;;;;;4.55;3.03;;;14.60;99.90;;;;;;5098133;28;20040;-77
2022/10/23 11:19:40;;;;;;;7.78;3.30;;;14.40;99.90;;;;;;5098229;28;20051;-77
2022/10/23 11:22:34;;;;;;;5.40;3.03;;;14.50;99.90;;;;;;5110465;27;20047;-77
2022/10/23 11:25:07;;;;;;;7.32;3.58;;;14.50;99.90;;;;;;5100901;28;20035;-83
2022/10/23 11:27:56;;;;;;;7.53;3.53;;;14.50;99.90;;;;;;5084205;28;20036;-77
2022/10/23 11:30:43;;;;;;;10.03;3.27;;;14.50;99.90;;;;;;4579430;27;10002118;-78
2022/10/23 11:33:24;;;;;;;13.45;3.45;;;14.60;99.90;;;;;;5077852;28;20050;-81
2022/10/23 11:36:05;;;;;;;11.48;3.22;;;15.60;99.90;;;;;;5106308;28;20047;-79
2022/10/23 11:38:36;;;;;;;7.22;2.88;;;14.70;99.90;;;;;;5085120;28;20050;-89
2022/10/23 11:41:05;;;;;;;6.88;3.13;;;15.60;99.90;;;;;;5100915;28;20039;-81
2022/10/23 11:43:52;;;;;;;7.43;2.88;;;14.70;99.90;;;;;;5103320;28;20039;-81
2022/10/23 11:46:26;;;;;;;6.35;2.88;;;14.60;99.90;;;;;;5103740;27;20039;-79
2022/10/23 11:48:52;;;;;;;;;;;14.90;99.90;;;;;;5088250;28;20113;-78
2022/10/23 11:51:32;;;;;;;21.67;4.88;;;15.10;99.90;;;;;;5131724;27;19923;-85
2022/10/23 11:54:25;;;;;;;9.68;3.58;;;15.60;99.90;;;;;;5098999;28;20530;-77
2022/10/23 11:57:06;;;;;;;10.50;2.72;;;14.70;99.90;;;;;;5107172;27;20565;-79
2022/10/23 11:59:53;;;;;;;10.25;2.88;;;14.70;99.90;;;;;;5131969;27;20036;-77
2022/10/23 12:02:27;;;;;;;6.97;3.65;;;14.70;99.90;;;;;;5099346;27;20043;-82
2022/10/23 12:04:54;;;;;;;5.93;3.22;;;14.70;99.90;;;;;;5085397;28;20521;-83
2022/10/23 12:07:30;;;;;;;10.98;3.47;;;14.70;99.90;;;;;;5098194;28;20505;-87
2022/10/23 12:10:02;;;;;;;10.88;5.00;;;14.70;99.90;;;;;;5085787;28;20039;-83
2022/10/23 12:12:29;;;;;;;10.75;3.60;;;14.70;99.90;;;;;;5109806;27;20069;-83
2022/10/23 12:15:17;;;;;;;5.07;3.53;;;14.70;99.90;;;;;;5105696;28;20036;-86
2022/10/23 12:17:45;;;;;;;10.18;4.38;;;14.70;99.90;;;;;;5120346;27;20500;-79
2022/10/23 12:20:11;;;;;;;7.00;3.63;;;14.50;99.90;;;;;;5107776;27;20480;-81
2022/10/23 12:23:10;;;;;;;5.97;3.60;;;14.70;99.90;;;;;;5099729;28;20044;-85
2022/10/23 12:26:10;;;;;;;10.43;4.00;;;14.80;99.90;;;;;;5109441;28;20047;-80
2022/10/23 12:28:44;;;;;;;7.45;4.30;;;14.80;99.90;;;;;;5104998;28;20182;-86
2022/10/23 12:31:29;;;;;;;8.05;3.38;;;14.80;99.90;;;;;;5106356;28;20133;-81
2022/10/23 12:34:09;;;;;;;9.85;3.70;;;14.80;99.90;;;;;;5137836;27;20375;-80
2022/10/23 12:36:49;;;;;;;11.07;3.83;;;14.80;99.90;;;;;;5087340;28;20486;-79
2022/10/23 12:39:29;;;;;;;8.15;2.90;;;15.50;99.90;;;;;;5107451;28;20044;-80
2022/10/23 12:41:56;;;;;;;4.72;3.03;;;14.80;99.90;;;;;;5091307;28;20036;-78
2022/10/23 12:44:24;;;;;;;8.25;3.72;;;15.60;99.90;;;;;;5108911;28;20050;-81
2022/10/23 12:46:56;;;;;;;8.90;3.78;;;15.50;99.90;;;;;;5111073;27;20039;-79
2022/10/23 12:49:24;;;;;;;8.95;3.83;;;15.60;99.90;;;;;;5107496;28;20040;-79
2022/10/23 12:52:15;;;;;;;9.15;3.05;;;15.40;99.90;;;;;;5103722;28;20500;-79
2022/10/23 12:54:41;;;;;;;7.40;3.50;;;14.90;99.90;;;;;;5095002;28;20047;-78
2022/10/23 12:57:29;;;;;;;5.85;3.15;;;15.10;99.90;;;;;;5109231;28;20042;-79